sensor_id;sensor_type;location;lat;lon;timestamp;pressure;altitude;pressure_sealevel;temperature;humidity
57000;BME280;42891;50.006;21.964;2022-07-29T00:02:31;99358.22;;;19.29;62.96
57000;BME280;42891;50.006;21.964;2022-07-29T00:06:32;99367.44;;;19.26;63.38
57000;BME280;42891;50.006;21.964;2022-07-29T00:10:32;99357.47;;;19.35;63.26
57000;BME280;42891;50.006;21.964;2022-07-29T00:14:33;99350.75;;;19.24;63.56
57000;BME280;42891;50.006;21.964;2022-07-29T00:18:33;99350.44;;;19.19;63.39
57000;BME280;42891;50.006;21.964;2022-07-29T00:22:37;99358.03;;;19.30;63.49
57000;BME280;42891;50.006;21.964;2022-07-29T00:26:37;99359.22;;;19.28;63.56
57000;BME280;42891;50.006;21.964;2022-07-29T00:30:38;99361.78;;;19.21;63.03
57000;BME280;42891;50.006;21.964;2022-07-29T00:34:38;99360.88;;;19.29;63.35
57000;BME280;42891;50.006;21.964;2022-07-29T00:38:57;99361.06;;;19.27;62.44
57000;BME280;42891;50.006;21.964;2022-07-29T00:42:58;99364.38;;;19.29;62.55
57000;BME280;42891;50.006;21.964;2022-07-29T00:46:58;99360.06;;;19.28;62.83
57000;BME280;42891;50.006;21.964;2022-07-29T00:50:59;99350.44;;;19.19;61.95
57000;BME280;42891;50.006;21.964;2022-07-29T00:55:03;99347.28;;;19.15;62.45
57000;BME280;42891;50.006;21.964;2022-07-29T00:59:04;99344.31;;;18.95;62.43
57000;BME280;42891;50.006;21.964;2022-07-29T01:03:05;99353.91;;;19.04;62.71
57000;BME280;42891;50.006;21.964;2022-07-29T01:07:05;99358.28;;;19.20;62.16
57000;BME280;42891;50.006;21.964;2022-07-29T01:11:06;99357.53;;;18.97;62.92
57000;BME280;42891;50.006;21.964;2022-07-29T01:15:08;99363.16;;;19.02;62.00
57000;BME280;42891;50.006;21.964;2022-07-29T01:19:47;99363.06;;;18.95;62.51
57000;BME280;42891;50.006;21.964;2022-07-29T01:24:11;99368.41;;;18.95;62.94
57000;BME280;42891;50.006;21.964;2022-07-29T01:32:53;99341.53;;;18.88;62.70
57000;BME280;42891;50.006;21.964;2022-07-29T01:37:08;99352.09;;;18.82;62.79
57000;BME280;42891;50.006;21.964;2022-07-29T01:41:15;99343.63;;;18.78;62.53
57000;BME280;42891;50.006;21.964;2022-07-29T01:45:21;99345.06;;;18.81;62.31
57000;BME280;42891;50.006;21.964;2022-07-29T01:49:29;99348.75;;;18.88;62.84
57000;BME280;42891;50.006;21.964;2022-07-29T01:53:42;99341.41;;;18.82;62.68
57000;BME280;42891;50.006;21.964;2022-07-29T01:57:46;99345.94;;;18.81;62.73
57000;BME280;42891;50.006;21.964;2022-07-29T02:01:48;99334.53;;;18.87;62.84
57000;BME280;42891;50.006;21.964;2022-07-29T02:05:50;99344.88;;;18.82;62.92
57000;BME280;42891;50.006;21.964;2022-07-29T02:09:52;99337.38;;;18.63;63.09
57000;BME280;42891;50.006;21.964;2022-07-29T02:13:55;99344.03;;;18.67;62.72
57000;BME280;42891;50.006;21.964;2022-07-29T02:18:01;99342.97;;;18.53;62.43
57000;BME280;42891;50.006;21.964;2022-07-29T02:22:03;99321.00;;;18.43;62.49
57000;BME280;42891;50.006;21.964;2022-07-29T02:26:07;99335.44;;;18.56;62.96
57000;BME280;42891;50.006;21.964;2022-07-29T02:30:09;99328.22;;;18.57;63.16
57000;BME280;42891;50.006;21.964;2022-07-29T02:34:11;99331.56;;;18.59;62.64
57000;BME280;42891;50.006;21.964;2022-07-29T02:38:14;99346.13;;;18.56;62.63
57000;BME280;42891;50.006;21.964;2022-07-29T02:42:36;99337.69;;;18.45;62.56
57000;BME280;42891;50.006;21.964;2022-07-29T02:46:41;99332.50;;;18.43;62.59
57000;BME280;42891;50.006;21.964;2022-07-29T02:50:46;99319.03;;;18.13;63.02
57000;BME280;42891;50.006;21.964;2022-07-29T02:54:51;99328.31;;;18.26;62.91
57000;BME280;42891;50.006;21.964;2022-07-29T02:58:55;99309.00;;;18.15;62.91
57000;BME280;42891;50.006;21.964;2022-07-29T03:02:59;99309.34;;;18.12;63.32
57000;BME280;42891;50.006;21.964;2022-07-29T03:07:00;99320.81;;;17.98;64.12
57000;BME280;42891;50.006;21.964;2022-07-29T03:11:01;99312.13;;;17.87;63.96
57000;BME280;42891;50.006;21.964;2022-07-29T03:15:04;99312.81;;;17.89;64.09
57000;BME280;42891;50.006;21.964;2022-07-29T03:19:05;99313.03;;;17.80;64.21
57000;BME280;42891;50.006;21.964;2022-07-29T03:23:05;99301.22;;;17.74;63.99
57000;BME280;42891;50.006;21.964;2022-07-29T03:27:05;99293.97;;;17.83;63.67
57000;BME280;42891;50.006;21.964;2022-07-29T03:31:06;99307.66;;;17.88;63.99
57000;BME280;42891;50.006;21.964;2022-07-29T03:35:06;99307.97;;;17.85;64.22
57000;BME280;42891;50.006;21.964;2022-07-29T03:39:08;99297.88;;;17.72;64.00
57000;BME280;42891;50.006;21.964;2022-07-29T03:43:09;99306.78;;;17.87;64.47
57000;BME280;42891;50.006;21.964;2022-07-29T03:47:13;99310.44;;;17.95;63.53
57000;BME280;42891;50.006;21.964;2022-07-29T03:51:15;99325.03;;;17.92;63.01
57000;BME280;42891;50.006;21.964;2022-07-29T03:55:15;99314.63;;;17.89;63.59
57000;BME280;42891;50.006;21.964;2022-07-29T03:59:17;99324.50;;;17.88;63.58
57000;BME280;42891;50.006;21.964;2022-07-29T04:03:20;99317.78;;;18.01;63.27
57000;BME280;42891;50.006;21.964;2022-07-29T04:07:20;99300.28;;;17.90;63.93
57000;BME280;42891;50.006;21.964;2022-07-29T04:11:20;99323.59;;;18.04;63.85
57000;BME280;42891;50.006;21.964;2022-07-29T04:15:21;99310.13;;;17.89;63.57
57000;BME280;42891;50.006;21.964;2022-07-29T04:19:21;99316.25;;;18.06;63.51
57000;BME280;42891;50.006;21.964;2022-07-29T04:23:22;99304.59;;;17.99;63.19
57000;BME280;42891;50.006;21.964;2022-07-29T04:27:22;99298.22;;;18.00;63.20
57000;BME280;42891;50.006;21.964;2022-07-29T04:31:23;99310.34;;;18.11;63.64
57000;BME280;42891;50.006;21.964;2022-07-29T04:35:23;99317.50;;;18.19;62.30
57000;BME280;42891;50.006;21.964;2022-07-29T04:39:24;99303.19;;;18.12;62.14
57000;BME280;42891;50.006;21.964;2022-07-29T04:43:24;99314.34;;;18.15;62.74
57000;BME280;42891;50.006;21.964;2022-07-29T04:47:24;99298.16;;;18.09;62.44
57000;BME280;42891;50.006;21.964;2022-07-29T04:51:25;99298.97;;;18.17;62.87
57000;BME280;42891;50.006;21.964;2022-07-29T04:55:25;99298.31;;;18.15;62.12
57000;BME280;42891;50.006;21.964;2022-07-29T04:59:26;99320.81;;;18.21;62.65
57000;BME280;42891;50.006;21.964;2022-07-29T05:03:27;99328.78;;;18.29;62.34
57000;BME280;42891;50.006;21.964;2022-07-29T05:07:27;99325.38;;;18.12;62.32
57000;BME280;42891;50.006;21.964;2022-07-29T05:11:27;99324.06;;;18.08;63.09
57000;BME280;42891;50.006;21.964;2022-07-29T05:15:28;99317.72;;;18.09;64.06
57000;BME280;42891;50.006;21.964;2022-07-29T05:19:28;99331.00;;;18.26;61.50
57000;BME280;42891;50.006;21.964;2022-07-29T05:23:28;99334.97;;;18.30;60.77
57000;BME280;42891;50.006;21.964;2022-07-29T05:27:29;99329.38;;;18.39;60.76
57000;BME280;42891;50.006;21.964;2022-07-29T05:31:29;99330.03;;;18.42;60.39
57000;BME280;42891;50.006;21.964;2022-07-29T05:35:29;99323.31;;;18.46;60.27
57000;BME280;42891;50.006;21.964;2022-07-29T05:39:29;99329.78;;;18.51;59.98
57000;BME280;42891;50.006;21.964;2022-07-29T05:43:30;99298.06;;;18.25;59.96
57000;BME280;42891;50.006;21.964;2022-07-29T05:47:30;99324.50;;;18.43;60.37
57000;BME280;42891;50.006;21.964;2022-07-29T05:51:30;99327.66;;;18.47;60.46
57000;BME280;42891;50.006;21.964;2022-07-29T05:55:31;99327.97;;;18.52;60.46
57000;BME280;42891;50.006;21.964;2022-07-29T05:59:35;99308.44;;;18.43;60.37
57000;BME280;42891;50.006;21.964;2022-07-29T06:03:35;99309.88;;;18.54;60.69
57000;BME280;42891;50.006;21.964;2022-07-29T06:07:37;99323.75;;;18.72;60.89
57000;BME280;42891;50.006;21.964;2022-07-29T06:11:38;99313.47;;;18.84;61.35
57000;BME280;42891;50.006;21.964;2022-07-29T06:15:38;99297.72;;;18.89;59.69
57000;BME280;42891;50.006;21.964;2022-07-29T06:19:38;99292.38;;;19.04;59.58
57000;BME280;42891;50.006;21.964;2022-07-29T06:23:39;99286.66;;;19.07;59.60
57000;BME280;42891;50.006;21.964;2022-07-29T06:27:39;99308.06;;;19.22;59.73
57000;BME280;42891;50.006;21.964;2022-07-29T06:31:40;99300.97;;;19.30;59.23
57000;BME280;42891;50.006;21.964;2022-07-29T06:35:40;99315.72;;;19.40;59.19
57000;BME280;42891;50.006;21.964;2022-07-29T06:39:42;99312.31;;;19.47;59.16
57000;BME280;42891;50.006;21.964;2022-07-29T06:43:44;99316.81;;;19.61;58.56
57000;BME280;42891;50.006;21.964;2022-07-29T06:47:44;99315.50;;;19.72;58.39
57000;BME280;42891;50.006;21.964;2022-07-29T06:51:45;99311.94;;;19.80;57.94
57000;BME280;42891;50.006;21.964;2022-07-29T06:55:45;99311.44;;;19.91;58.43
57000;BME280;42891;50.006;21.964;2022-07-29T06:59:45;99313.91;;;20.07;59.30
57000;BME280;42891;50.006;21.964;2022-07-29T07:03:46;99300.31;;;20.09;58.24
57000;BME280;42891;50.006;21.964;2022-07-29T07:07:46;99294.16;;;20.15;57.73
57000;BME280;42891;50.006;21.964;2022-07-29T07:11:46;99305.03;;;20.29;57.81
57000;BME280;42891;50.006;21.964;2022-07-29T07:15:47;99304.06;;;20.36;57.41
57000;BME280;42891;50.006;21.964;2022-07-29T07:19:48;99300.22;;;20.46;57.39
57000;BME280;42891;50.006;21.964;2022-07-29T07:23:48;99321.69;;;20.67;56.27
57000;BME280;42891;50.006;21.964;2022-07-29T07:27:49;99306.91;;;20.78;56.11
57000;BME280;42891;50.006;21.964;2022-07-29T07:31:49;99309.78;;;20.76;55.98
57000;BME280;42891;50.006;21.964;2022-07-29T07:35:50;99306.53;;;20.81;56.10
57000;BME280;42891;50.006;21.964;2022-07-29T07:39:51;99302.00;;;20.82;57.07
57000;BME280;42891;50.006;21.964;2022-07-29T07:43:51;99308.34;;;21.02;56.08
57000;BME280;42891;50.006;21.964;2022-07-29T07:47:51;99318.31;;;21.15;56.77
57000;BME280;42891;50.006;21.964;2022-07-29T07:51:52;99319.63;;;21.26;56.22
57000;BME280;42891;50.006;21.964;2022-07-29T07:55:52;99317.41;;;21.36;56.35
57000;BME280;42891;50.006;21.964;2022-07-29T07:59:53;99313.28;;;21.40;56.39
57000;BME280;42891;50.006;21.964;2022-07-29T08:03:53;99320.38;;;21.48;56.49
57000;BME280;42891;50.006;21.964;2022-07-29T08:07:53;99311.00;;;21.66;57.28
57000;BME280;42891;50.006;21.964;2022-07-29T08:11:54;99309.72;;;21.68;56.53
57000;BME280;42891;50.006;21.964;2022-07-29T08:15:55;99295.31;;;21.76;56.30
57000;BME280;42891;50.006;21.964;2022-07-29T08:19:59;99315.22;;;21.95;55.13
57000;BME280;42891;50.006;21.964;2022-07-29T08:24:00;99304.50;;;22.02;56.06
57000;BME280;42891;50.006;21.964;2022-07-29T08:28:19;99301.38;;;22.05;55.49
57000;BME280;42891;50.006;21.964;2022-07-29T08:32:19;99302.22;;;22.12;54.66
57000;BME280;42891;50.006;21.964;2022-07-29T08:36:19;99298.91;;;22.10;55.27
57000;BME280;42891;50.006;21.964;2022-07-29T08:40:20;99315.06;;;22.23;55.63
57000;BME280;42891;50.006;21.964;2022-07-29T08:44:21;99322.56;;;22.35;55.36
57000;BME280;42891;50.006;21.964;2022-07-29T08:48:23;99302.88;;;22.27;54.70
57000;BME280;42891;50.006;21.964;2022-07-29T08:52:25;99317.34;;;22.33;55.19
57000;BME280;42891;50.006;21.964;2022-07-29T08:56:26;99308.09;;;22.42;54.60
57000;BME280;42891;50.006;21.964;2022-07-29T09:00:27;99313.50;;;22.56;56.12
57000;BME280;42891;50.006;21.964;2022-07-29T09:04:30;99307.88;;;22.71;54.95
57000;BME280;42891;50.006;21.964;2022-07-29T09:08:34;99296.31;;;22.77;55.47
57000;BME280;42891;50.006;21.964;2022-07-29T09:12:34;99297.34;;;22.83;53.98
57000;BME280;42891;50.006;21.964;2022-07-29T09:16:46;99297.50;;;23.08;54.93
57000;BME280;42891;50.006;21.964;2022-07-29T09:20:51;99301.66;;;23.10;53.85
57000;BME280;42891;50.006;21.964;2022-07-29T09:25:11;99285.06;;;23.07;53.30
57000;BME280;42891;50.006;21.964;2022-07-29T09:29:23;99285.06;;;23.07;54.01
57000;BME280;42891;50.006;21.964;2022-07-29T09:33:31;99281.97;;;23.17;53.75
57000;BME280;42891;50.006;21.964;2022-07-29T09:37:34;99275.97;;;23.21;52.59
57000;BME280;42891;50.006;21.964;2022-07-29T09:41:46;99272.38;;;23.41;52.76
57000;BME280;42891;50.006;21.964;2022-07-29T09:45:47;99256.34;;;23.53;53.12
57000;BME280;42891;50.006;21.964;2022-07-29T09:50:06;99258.34;;;23.71;52.34
57000;BME280;42891;50.006;21.964;2022-07-29T09:54:23;99262.00;;;23.83;52.34
57000;BME280;42891;50.006;21.964;2022-07-29T09:58:24;99262.00;;;23.83;52.26
57000;BME280;42891;50.006;21.964;2022-07-29T10:02:29;99259.06;;;23.98;51.75
57000;BME280;42891;50.006;21.964;2022-07-29T10:06:30;99258.59;;;24.01;52.13
57000;BME280;42891;50.006;21.964;2022-07-29T10:10:34;99259.28;;;23.96;52.07
57000;BME280;42891;50.006;21.964;2022-07-29T10:14:35;99255.69;;;24.03;52.85
57000;BME280;42891;50.006;21.964;2022-07-29T10:18:38;99252.59;;;24.06;53.38
57000;BME280;42891;50.006;21.964;2022-07-29T10:22:40;99244.63;;;24.11;52.96
57000;BME280;42891;50.006;21.964;2022-07-29T10:26:41;99262.22;;;24.20;53.52
57000;BME280;42891;50.006;21.964;2022-07-29T10:30:43;99255.78;;;24.21;52.08
57000;BME280;42891;50.006;21.964;2022-07-29T10:39:12;99248.28;;;24.48;51.23
57000;BME280;42891;50.006;21.964;2022-07-29T10:43:23;99236.00;;;24.52;50.97
57000;BME280;42891;50.006;21.964;2022-07-29T10:47:26;99251.56;;;24.57;51.48
57000;BME280;42891;50.006;21.964;2022-07-29T10:55:51;99240.69;;;24.64;51.96
57000;BME280;42891;50.006;21.964;2022-07-29T11:04:01;99241.06;;;24.93;51.10
57000;BME280;42891;50.006;21.964;2022-07-29T11:17:01;99236.66;;;25.17;49.43
57000;BME280;42891;50.006;21.964;2022-07-29T11:21:02;99237.31;;;25.31;50.22
57000;BME280;42891;50.006;21.964;2022-07-29T11:25:16;99241.25;;;25.35;49.57
57000;BME280;42891;50.006;21.964;2022-07-29T11:29:20;99230.47;;;25.47;50.68
57000;BME280;42891;50.006;21.964;2022-07-29T11:33:32;99221.47;;;25.53;49.73
57000;BME280;42891;50.006;21.964;2022-07-29T11:37:32;99205.47;;;25.51;50.21
57000;BME280;42891;50.006;21.964;2022-07-29T11:41:33;99211.63;;;25.59;50.22
57000;BME280;42891;50.006;21.964;2022-07-29T11:45:46;99224.28;;;25.58;48.65
57000;BME280;42891;50.006;21.964;2022-07-29T11:49:47;99196.69;;;25.68;49.15
57000;BME280;42891;50.006;21.964;2022-07-29T11:53:48;99197.66;;;25.74;48.19
57000;BME280;42891;50.006;21.964;2022-07-29T11:57:57;99190.88;;;25.83;50.25
57000;BME280;42891;50.006;21.964;2022-07-29T12:01:59;99196.88;;;25.85;48.41
57000;BME280;42891;50.006;21.964;2022-07-29T12:05:59;99193.56;;;25.83;49.16
57000;BME280;42891;50.006;21.964;2022-07-29T12:10:00;99175.50;;;25.83;48.95
57000;BME280;42891;50.006;21.964;2022-07-29T12:14:01;99178.88;;;26.21;49.00
57000;BME280;42891;50.006;21.964;2022-07-29T12:18:10;99177.34;;;26.37;48.94
57000;BME280;42891;50.006;21.964;2022-07-29T12:22:10;99170.63;;;26.40;47.70
57000;BME280;42891;50.006;21.964;2022-07-29T12:26:11;99158.72;;;26.52;48.00
57000;BME280;42891;50.006;21.964;2022-07-29T12:30:13;99160.97;;;26.44;47.51
57000;BME280;42891;50.006;21.964;2022-07-29T12:34:15;99153.78;;;26.49;47.55
57000;BME280;42891;50.006;21.964;2022-07-29T12:38:16;99142.84;;;26.44;47.41
57000;BME280;42891;50.006;21.964;2022-07-29T12:42:16;99130.03;;;26.51;47.27
57000;BME280;42891;50.006;21.964;2022-07-29T12:46:18;99141.53;;;26.82;48.22
57000;BME280;42891;50.006;21.964;2022-07-29T12:50:18;99138.81;;;26.82;46.59
57000;BME280;42891;50.006;21.964;2022-07-29T12:54:19;99124.91;;;26.79;46.18
57000;BME280;42891;50.006;21.964;2022-07-29T13:02:32;99114.41;;;26.94;44.87
57000;BME280;42891;50.006;21.964;2022-07-29T13:06:37;99113.25;;;27.19;45.37
57000;BME280;42891;50.006;21.964;2022-07-29T13:10:38;99115.28;;;27.12;45.06
57000;BME280;42891;50.006;21.964;2022-07-29T13:14:46;99105.97;;;27.19;45.26
57000;BME280;42891;50.006;21.964;2022-07-29T13:18:47;99109.53;;;27.37;44.12
57000;BME280;42891;50.006;21.964;2022-07-29T13:22:48;99111.50;;;27.42;44.36
57000;BME280;42891;50.006;21.964;2022-07-29T13:26:48;99109.66;;;27.42;45.42
57000;BME280;42891;50.006;21.964;2022-07-29T13:30:48;99097.50;;;27.45;44.41
57000;BME280;42891;50.006;21.964;2022-07-29T13:34:49;99097.50;;;27.62;44.75
57000;BME280;42891;50.006;21.964;2022-07-29T13:38:49;99098.41;;;27.67;44.13
57000;BME280;42891;50.006;21.964;2022-07-29T13:42:50;99092.22;;;27.72;43.68
57000;BME280;42891;50.006;21.964;2022-07-29T13:46:51;99082.63;;;27.64;43.34
57000;BME280;42891;50.006;21.964;2022-07-29T13:50:51;99089.38;;;27.62;43.50
57000;BME280;42891;50.006;21.964;2022-07-29T13:54:52;99085.25;;;27.76;42.45
57000;BME280;42891;50.006;21.964;2022-07-29T13:58:52;99063.41;;;27.49;43.18
57000;BME280;42891;50.006;21.964;2022-07-29T14:02:52;99073.66;;;27.64;44.17
57000;BME280;42891;50.006;21.964;2022-07-29T14:06:54;99068.31;;;27.69;42.98
57000;BME280;42891;50.006;21.964;2022-07-29T14:10:54;99061.34;;;27.73;43.42
57000;BME280;42891;50.006;21.964;2022-07-29T14:14:55;99064.94;;;27.79;43.13
57000;BME280;42891;50.006;21.964;2022-07-29T14:18:55;99056.91;;;27.84;42.45
57000;BME280;42891;50.006;21.964;2022-07-29T14:22:56;99033.78;;;27.81;42.83
57000;BME280;42891;50.006;21.964;2022-07-29T14:26:56;99049.91;;;27.88;42.61
57000;BME280;42891;50.006;21.964;2022-07-29T14:30:57;99044.16;;;27.84;42.58
57000;BME280;42891;50.006;21.964;2022-07-29T14:34:57;99037.91;;;27.84;42.68
57000;BME280;42891;50.006;21.964;2022-07-29T14:38:57;99029.34;;;27.92;42.58
57000;BME280;42891;50.006;21.964;2022-07-29T14:42:58;99022.47;;;28.01;43.10
57000;BME280;42891;50.006;21.964;2022-07-29T14:46:58;99016.19;;;28.01;42.61
57000;BME280;42891;50.006;21.964;2022-07-29T14:51:00;99015.69;;;27.87;42.03
57000;BME280;42891;50.006;21.964;2022-07-29T14:55:02;99010.44;;;27.80;42.25
57000;BME280;42891;50.006;21.964;2022-07-29T14:59:02;99014.88;;;27.86;42.34
57000;BME280;42891;50.006;21.964;2022-07-29T15:03:03;99012.00;;;27.93;42.50
57000;BME280;42891;50.006;21.964;2022-07-29T15:07:03;99003.47;;;28.01;42.02
57000;BME280;42891;50.006;21.964;2022-07-29T15:11:04;98991.00;;;28.05;42.43
57000;BME280;42891;50.006;21.964;2022-07-29T15:15:04;98980.09;;;28.00;42.70
57000;BME280;42891;50.006;21.964;2022-07-29T15:19:05;98980.22;;;28.11;42.18
57000;BME280;42891;50.006;21.964;2022-07-29T15:23:05;98981.06;;;28.11;41.81
57000;BME280;42891;50.006;21.964;2022-07-29T15:27:09;98988.63;;;28.09;42.28
57000;BME280;42891;50.006;21.964;2022-07-29T15:31:14;98992.72;;;28.12;42.10
57000;BME280;42891;50.006;21.964;2022-07-29T15:35:14;98966.59;;;28.05;41.81
57000;BME280;42891;50.006;21.964;2022-07-29T15:39:14;98990.44;;;28.03;42.26
57000;BME280;42891;50.006;21.964;2022-07-29T15:43:15;98990.81;;;28.12;41.94
57000;BME280;42891;50.006;21.964;2022-07-29T15:47:15;98993.97;;;28.04;42.88
57000;BME280;42891;50.006;21.964;2022-07-29T15:51:15;99001.72;;;27.95;42.93
57000;BME280;42891;50.006;21.964;2022-07-29T15:55:15;98992.34;;;28.03;42.13
57000;BME280;42891;50.006;21.964;2022-07-29T15:59:16;98988.25;;;27.83;42.23
57000;BME280;42891;50.006;21.964;2022-07-29T16:03:17;98991.31;;;27.70;42.87
57000;BME280;42891;50.006;21.964;2022-07-29T16:07:18;99001.25;;;27.64;43.26
57000;BME280;42891;50.006;21.964;2022-07-29T16:11:18;98990.34;;;27.42;43.72
57000;BME280;42891;50.006;21.964;2022-07-29T16:15:19;99007.34;;;27.54;43.31
57000;BME280;42891;50.006;21.964;2022-07-29T16:19:19;99000.19;;;27.48;44.12
57000;BME280;42891;50.006;21.964;2022-07-29T16:23:19;99006.19;;;27.33;44.20
57000;BME280;42891;50.006;21.964;2022-07-29T16:27:20;99002.22;;;27.24;43.93
57000;BME280;42891;50.006;21.964;2022-07-29T16:31:24;98993.19;;;27.18;44.41
57000;BME280;42891;50.006;21.964;2022-07-29T16:35:24;98980.59;;;26.95;45.03
57000;BME280;42891;50.006;21.964;2022-07-29T16:39:25;98995.94;;;26.90;45.30
57000;BME280;42891;50.006;21.964;2022-07-29T16:43:25;99004.72;;;26.97;45.71
57000;BME280;42891;50.006;21.964;2022-07-29T16:47:25;99004.28;;;26.88;45.62
57000;BME280;42891;50.006;21.964;2022-07-29T16:51:26;99008.94;;;26.76;45.61
57000;BME280;42891;50.006;21.964;2022-07-29T16:55:26;99004.81;;;26.73;46.83
57000;BME280;42891;50.006;21.964;2022-07-29T16:59:27;99003.63;;;26.69;46.06
57000;BME280;42891;50.006;21.964;2022-07-29T17:03:28;98992.25;;;26.55;46.55
57000;BME280;42891;50.006;21.964;2022-07-29T17:07:28;99004.50;;;26.58;46.51
57000;BME280;42891;50.006;21.964;2022-07-29T17:11:29;99014.66;;;26.50;46.89
57000;BME280;42891;50.006;21.964;2022-07-29T17:15:29;99017.00;;;26.47;47.12
57000;BME280;42891;50.006;21.964;2022-07-29T17:19:32;99017.75;;;26.42;47.45
57000;BME280;42891;50.006;21.964;2022-07-29T17:23:34;99022.09;;;26.31;47.47
57000;BME280;42891;50.006;21.964;2022-07-29T17:27:34;99016.94;;;26.30;47.77
57000;BME280;42891;50.006;21.964;2022-07-29T17:31:35;99009.78;;;26.12;47.70
57000;BME280;42891;50.006;21.964;2022-07-29T17:35:36;99019.44;;;26.19;47.95
57000;BME280;42891;50.006;21.964;2022-07-29T17:39:55;99018.72;;;26.12;49.04
57000;BME280;42891;50.006;21.964;2022-07-29T17:43:55;99010.50;;;26.07;49.02
57000;BME280;42891;50.006;21.964;2022-07-29T17:47:56;99008.72;;;26.01;48.67
57000;BME280;42891;50.006;21.964;2022-07-29T17:51:56;99017.69;;;26.01;48.91
57000;BME280;42891;50.006;21.964;2022-07-29T17:55:57;99019.06;;;25.92;49.11
57000;BME280;42891;50.006;21.964;2022-07-29T17:59:57;99012.63;;;25.93;49.14
57000;BME280;42891;50.006;21.964;2022-07-29T18:03:58;99019.78;;;25.88;49.59
57000;BME280;42891;50.006;21.964;2022-07-29T18:07:58;99017.66;;;25.78;50.14
57000;BME280;42891;50.006;21.964;2022-07-29T18:11:58;99001.69;;;25.64;50.14
57000;BME280;42891;50.006;21.964;2022-07-29T18:15:59;99021.88;;;25.74;50.25
57000;BME280;42891;50.006;21.964;2022-07-29T18:19:59;99011.31;;;25.72;50.82
57000;BME280;42891;50.006;21.964;2022-07-29T18:24:00;99017.78;;;25.71;50.50
57000;BME280;42891;50.006;21.964;2022-07-29T18:28:01;99023.88;;;25.66;51.17
57000;BME280;42891;50.006;21.964;2022-07-29T18:32:01;99024.97;;;25.65;50.92
57000;BME280;42891;50.006;21.964;2022-07-29T18:36:02;99024.47;;;25.57;51.67
57000;BME280;42891;50.006;21.964;2022-07-29T18:40:03;99042.56;;;25.56;51.80
57000;BME280;42891;50.006;21.964;2022-07-29T18:44:04;99049.50;;;25.52;51.76
57000;BME280;42891;50.006;21.964;2022-07-29T18:48:04;99044.28;;;25.39;52.49
57000;BME280;42891;50.006;21.964;2022-07-29T18:52:07;99047.94;;;25.44;52.36
57000;BME280;42891;50.006;21.964;2022-07-29T18:56:07;99049.03;;;25.43;52.71
57000;BME280;42891;50.006;21.964;2022-07-29T19:00:08;99045.38;;;25.38;52.56
57000;BME280;42891;50.006;21.964;2022-07-29T19:04:09;99049.59;;;25.33;52.61
57000;BME280;42891;50.006;21.964;2022-07-29T19:08:09;99044.00;;;25.28;52.99
57000;BME280;42891;50.006;21.964;2022-07-29T19:12:10;99049.41;;;25.28;53.07
57000;BME280;42891;50.006;21.964;2022-07-29T19:16:10;99055.72;;;25.22;53.70
57000;BME280;42891;50.006;21.964;2022-07-29T19:20:13;99044.44;;;25.13;53.47
57000;BME280;42891;50.006;21.964;2022-07-29T19:24:14;99065.97;;;25.20;53.41
57000;BME280;42891;50.006;21.964;2022-07-29T19:28:14;99056.28;;;25.12;53.79
57000;BME280;42891;50.006;21.964;2022-07-29T19:32:14;99074.16;;;25.13;54.12
57000;BME280;42891;50.006;21.964;2022-07-29T19:36:15;99080.03;;;25.10;54.59
57000;BME280;42891;50.006;21.964;2022-07-29T19:40:15;99072.00;;;25.04;54.77
57000;BME280;42891;50.006;21.964;2022-07-29T19:44:16;99070.91;;;24.93;54.65
57000;BME280;42891;50.006;21.964;2022-07-29T19:48:16;99080.66;;;24.94;55.45
57000;BME280;42891;50.006;21.964;2022-07-29T19:52:17;99065.22;;;24.82;55.12
57000;BME280;42891;50.006;21.964;2022-07-29T19:56:17;99065.22;;;24.82;55.57
57000;BME280;42891;50.006;21.964;2022-07-29T20:00:18;99082.00;;;24.84;56.51
57000;BME280;42891;50.006;21.964;2022-07-29T20:04:19;99072.94;;;24.79;56.70
57000;BME280;42891;50.006;21.964;2022-07-29T20:08:19;99084.91;;;24.71;57.15
57000;BME280;42891;50.006;21.964;2022-07-29T20:12:21;99090.53;;;24.70;57.27
57000;BME280;42891;50.006;21.964;2022-07-29T20:16:21;99085.78;;;24.65;56.61
57000;BME280;42891;50.006;21.964;2022-07-29T20:20:22;99085.81;;;24.58;57.03
57000;BME280;42891;50.006;21.964;2022-07-29T20:24:22;99091.91;;;24.54;57.11
57000;BME280;42891;50.006;21.964;2022-07-29T20:28:23;99097.59;;;24.45;58.05
57000;BME280;42891;50.006;21.964;2022-07-29T20:32:23;99086.34;;;24.48;57.50
57000;BME280;42891;50.006;21.964;2022-07-29T20:36:23;99090.53;;;24.44;57.15
57000;BME280;42891;50.006;21.964;2022-07-29T20:40:25;99078.72;;;24.27;57.80
57000;BME280;42891;50.006;21.964;2022-07-29T20:44:25;99091.75;;;24.30;58.44
57000;BME280;42891;50.006;21.964;2022-07-29T20:48:25;99089.50;;;24.27;58.02
57000;BME280;42891;50.006;21.964;2022-07-29T20:52:26;99088.00;;;24.31;58.49
57000;BME280;42891;50.006;21.964;2022-07-29T20:56:28;99082.66;;;24.24;58.63
57000;BME280;42891;50.006;21.964;2022-07-29T21:00:28;99073.59;;;24.19;58.94
57000;BME280;42891;50.006;21.964;2022-07-29T21:04:30;99074.88;;;24.16;59.07
57000;BME280;42891;50.006;21.964;2022-07-29T21:08:30;99061.50;;;24.03;58.85
57000;BME280;42891;50.006;21.964;2022-07-29T21:12:31;99089.84;;;24.12;59.44
57000;BME280;42891;50.006;21.964;2022-07-29T21:16:32;99080.31;;;24.09;58.64
57000;BME280;42891;50.006;21.964;2022-07-29T21:20:33;99082.75;;;24.17;59.67
57000;BME280;42891;50.006;21.964;2022-07-29T21:24:33;99092.09;;;24.15;59.22
57000;BME280;42891;50.006;21.964;2022-07-29T21:28:34;99096.69;;;24.14;60.09
57000;BME280;42891;50.006;21.964;2022-07-29T21:32:39;99099.16;;;24.16;59.74
57000;BME280;42891;50.006;21.964;2022-07-29T21:36:39;99089.59;;;23.95;60.95